sensor_id;sensor_type;location;lat;lon;timestamp;temperature;humidity
51878;SHT31;37911;51.526;11.536;2022-12-18T00:00:18;-9.88;81.32
51878;SHT31;37911;51.526;11.536;2022-12-18T00:03:24;-9.88;81.16
51878;SHT31;37911;51.526;11.536;2022-12-18T00:06:29;-9.85;81.43
51878;SHT31;37911;51.526;11.536;2022-12-18T00:09:33;-9.85;81.43
51878;SHT31;37911;51.526;11.536;2022-12-18T00:12:36;-9.83;81.52
51878;SHT31;37911;51.526;11.536;2022-12-18T00:15:39;-9.90;81.63
51878;SHT31;37911;51.526;11.536;2022-12-18T00:18:45;-9.95;81.97
51878;SHT31;37911;51.526;11.536;2022-12-18T00:21:49;-9.92;82.83
51878;SHT31;37911;51.526;11.536;2022-12-18T00:24:52;-9.96;83.64
51878;SHT31;37911;51.526;11.536;2022-12-18T00:27:56;-9.93;84.24
51878;SHT31;37911;51.526;11.536;2022-12-18T00:31:00;-9.93;84.59
51878;SHT31;37911;51.526;11.536;2022-12-18T00:34:06;-9.90;84.38
51878;SHT31;37911;51.526;11.536;2022-12-18T00:37:14;-9.99;84.48
51878;SHT31;37911;51.526;11.536;2022-12-18T00:40:17;-9.93;84.65
51878;SHT31;37911;51.526;11.536;2022-12-18T00:43:21;-10.02;84.22
51878;SHT31;37911;51.526;11.536;2022-12-18T00:46:21;-10.06;84.06
51878;SHT31;37911;51.526;11.536;2022-12-18T00:49:27;-10.03;84.61
51878;SHT31;37911;51.526;11.536;2022-12-18T00:52:31;-9.98;84.69
51878;SHT31;37911;51.526;11.536;2022-12-18T00:55:34;-9.95;84.64
51878;SHT31;37911;51.526;11.536;2022-12-18T00:58:37;-9.99;83.81
51878;SHT31;37911;51.526;11.536;2022-12-18T01:01:41;-9.96;83.92
51878;SHT31;37911;51.526;11.536;2022-12-18T01:04:47;-10.03;82.73
51878;SHT31;37911;51.526;11.536;2022-12-18T01:07:55;-10.10;81.76
51878;SHT31;37911;51.526;11.536;2022-12-18T01:10:58;-10.30;80.55
51878;SHT31;37911;51.526;11.536;2022-12-18T01:14:01;-10.36;80.90
51878;SHT31;37911;51.526;11.536;2022-12-18T01:17:05;-10.37;80.75
51878;SHT31;37911;51.526;11.536;2022-12-18T01:20:12;-10.44;81.27
51878;SHT31;37911;51.526;11.536;2022-12-18T01:23:16;-10.43;81.19
51878;SHT31;37911;51.526;11.536;2022-12-18T01:26:19;-10.40;81.31
51878;SHT31;37911;51.526;11.536;2022-12-18T01:29:24;-10.40;81.17
51878;SHT31;37911;51.526;11.536;2022-12-18T01:32:29;-10.54;80.86
51878;SHT31;37911;51.526;11.536;2022-12-18T01:35:40;-10.53;81.09
51878;SHT31;37911;51.526;11.536;2022-12-18T01:38:44;-10.40;80.73
51878;SHT31;37911;51.526;11.536;2022-12-18T01:41:47;-10.41;80.60
51878;SHT31;37911;51.526;11.536;2022-12-18T01:45:08;-10.57;80.23
51878;SHT31;37911;51.526;11.536;2022-12-18T01:48:25;-10.48;80.57
51878;SHT31;37911;51.526;11.536;2022-12-18T01:51:31;-10.45;80.63
51878;SHT31;37911;51.526;11.536;2022-12-18T01:54:34;-10.48;80.89
51878;SHT31;37911;51.526;11.536;2022-12-18T01:57:38;-10.41;83.00
51878;SHT31;37911;51.526;11.536;2022-12-18T02:00:42;-10.38;83.07
51878;SHT31;37911;51.526;11.536;2022-12-18T02:03:46;-10.37;84.07
51878;SHT31;37911;51.526;11.536;2022-12-18T02:07:09;-10.47;83.37
51878;SHT31;37911;51.526;11.536;2022-12-18T02:10:20;-10.50;83.87
51878;SHT31;37911;51.526;11.536;2022-12-18T02:13:28;-10.51;84.36
51878;SHT31;37911;51.526;11.536;2022-12-18T02:16:38;-10.53;83.92
51878;SHT31;37911;51.526;11.536;2022-12-18T02:19:52;-10.55;83.77
51878;SHT31;37911;51.526;11.536;2022-12-18T02:23:08;-10.63;83.44
51878;SHT31;37911;51.526;11.536;2022-12-18T02:26:22;-10.61;83.74
51878;SHT31;37911;51.526;11.536;2022-12-18T02:29:31;-10.61;82.61
51878;SHT31;37911;51.526;11.536;2022-12-18T02:32:38;-10.76;81.50
51878;SHT31;37911;51.526;11.536;2022-12-18T02:35:43;-10.69;81.67
51878;SHT31;37911;51.526;11.536;2022-12-18T02:38:50;-10.78;81.05
51878;SHT31;37911;51.526;11.536;2022-12-18T02:41:59;-10.85;80.77
51878;SHT31;37911;51.526;11.536;2022-12-18T02:45:09;-10.88;80.58
51878;SHT31;37911;51.526;11.536;2022-12-18T02:48:14;-10.84;80.42
51878;SHT31;37911;51.526;11.536;2022-12-18T02:51:25;-10.86;80.34
51878;SHT31;37911;51.526;11.536;2022-12-18T02:54:41;-10.81;80.39
51878;SHT31;37911;51.526;11.536;2022-12-18T02:57:54;-10.82;80.64
51878;SHT31;37911;51.526;11.536;2022-12-18T03:01:09;-10.88;80.99
51878;SHT31;37911;51.526;11.536;2022-12-18T03:04:17;-10.89;80.74
51878;SHT31;37911;51.526;11.536;2022-12-18T03:07:37;-10.95;80.64
51878;SHT31;37911;51.526;11.536;2022-12-18T03:10:49;-10.92;80.78
51878;SHT31;37911;51.526;11.536;2022-12-18T03:13:57;-10.85;80.58
51878;SHT31;37911;51.526;11.536;2022-12-18T03:17:04;-10.86;80.23
51878;SHT31;37911;51.526;11.536;2022-12-18T03:20:12;-10.86;79.38
51878;SHT31;37911;51.526;11.536;2022-12-18T03:23:21;-11.02;79.43
51878;SHT31;37911;51.526;11.536;2022-12-18T03:26:26;-11.06;79.44
51878;SHT31;37911;51.526;11.536;2022-12-18T03:29:40;-11.09;79.87
51878;SHT31;37911;51.526;11.536;2022-12-18T03:32:52;-11.14;80.29
51878;SHT31;37911;51.526;11.536;2022-12-18T03:35:57;-11.08;80.40
51878;SHT31;37911;51.526;11.536;2022-12-18T03:39:01;-11.05;80.14
51878;SHT31;37911;51.526;11.536;2022-12-18T03:42:15;-11.02;80.43
51878;SHT31;37911;51.526;11.536;2022-12-18T03:45:32;-11.01;80.58
51878;SHT31;37911;51.526;11.536;2022-12-18T03:48:43;-11.06;80.73
51878;SHT31;37911;51.526;11.536;2022-12-18T03:51:54;-11.11;80.42
51878;SHT31;37911;51.526;11.536;2022-12-18T03:55:00;-11.12;80.16
51878;SHT31;37911;51.526;11.536;2022-12-18T03:58:06;-11.19;79.84
51878;SHT31;37911;51.526;11.536;2022-12-18T04:01:30;-11.23;79.82
51878;SHT31;37911;51.526;11.536;2022-12-18T04:04:37;-11.28;79.81
51878;SHT31;37911;51.526;11.536;2022-12-18T04:07:42;-11.29;80.38
51878;SHT31;37911;51.526;11.536;2022-12-18T04:10:48;-11.18;80.64
51878;SHT31;37911;51.526;11.536;2022-12-18T04:13:55;-11.20;81.16
51878;SHT31;37911;51.526;11.536;2022-12-18T04:17:02;-11.19;80.76
51878;SHT31;37911;51.526;11.536;2022-12-18T04:20:08;-11.29;80.62
51878;SHT31;37911;51.526;11.536;2022-12-18T04:23:16;-11.28;81.09
51878;SHT31;37911;51.526;11.536;2022-12-18T04:26:21;-11.28;81.82
51878;SHT31;37911;51.526;11.536;2022-12-18T04:29:39;-11.25;81.52
51878;SHT31;37911;51.526;11.536;2022-12-18T04:32:45;-11.25;81.65
51878;SHT31;37911;51.526;11.536;2022-12-18T04:35:48;-11.26;81.36
51878;SHT31;37911;51.526;11.536;2022-12-18T04:38:52;-11.29;81.12
51878;SHT31;37911;51.526;11.536;2022-12-18T04:41:56;-11.43;81.33
51878;SHT31;37911;51.526;11.536;2022-12-18T04:44:59;-11.47;81.77
51878;SHT31;37911;51.526;11.536;2022-12-18T04:48:05;-11.49;81.55
51878;SHT31;37911;51.526;11.536;2022-12-18T04:51:09;-11.43;81.24
51878;SHT31;37911;51.526;11.536;2022-12-18T04:54:13;-11.42;81.51
51878;SHT31;37911;51.526;11.536;2022-12-18T04:57:24;-11.47;81.06
51878;SHT31;37911;51.526;11.536;2022-12-18T05:00:27;-11.38;81.39
51878;SHT31;37911;51.526;11.536;2022-12-18T05:03:34;-11.50;80.72
51878;SHT31;37911;51.526;11.536;2022-12-18T05:06:38;-11.49;80.18
51878;SHT31;37911;51.526;11.536;2022-12-18T05:09:41;-11.54;80.02
51878;SHT31;37911;51.526;11.536;2022-12-18T05:12:44;-11.60;80.83
51878;SHT31;37911;51.526;11.536;2022-12-18T05:16:01;-11.74;82.20
51878;SHT31;37911;51.526;11.536;2022-12-18T05:19:07;-11.74;82.53
51878;SHT31;37911;51.526;11.536;2022-12-18T05:22:11;-11.71;82.01
51878;SHT31;37911;51.526;11.536;2022-12-18T05:25:15;-11.71;81.19
51878;SHT31;37911;51.526;11.536;2022-12-18T05:28:18;-11.73;81.53
51878;SHT31;37911;51.526;11.536;2022-12-18T05:31:22;-11.78;82.17
51878;SHT31;37911;51.526;11.536;2022-12-18T05:34:28;-11.67;82.43
51878;SHT31;37911;51.526;11.536;2022-12-18T05:37:31;-11.77;81.87
51878;SHT31;37911;51.526;11.536;2022-12-18T05:40:35;-11.80;82.23
51878;SHT31;37911;51.526;11.536;2022-12-18T05:43:40;-11.81;81.88
51878;SHT31;37911;51.526;11.536;2022-12-18T05:46:44;-11.85;82.09
51878;SHT31;37911;51.526;11.536;2022-12-18T05:49:50;-11.78;82.31
51878;SHT31;37911;51.526;11.536;2022-12-18T05:52:53;-11.83;82.10
51878;SHT31;37911;51.526;11.536;2022-12-18T05:56:00;-11.95;82.92
51878;SHT31;37911;51.526;11.536;2022-12-18T05:59:03;-11.99;83.38
51878;SHT31;37911;51.526;11.536;2022-12-18T06:02:07;-11.99;84.03
51878;SHT31;37911;51.526;11.536;2022-12-18T06:05:13;-12.05;83.77
51878;SHT31;37911;51.526;11.536;2022-12-18T06:08:16;-11.99;83.49
51878;SHT31;37911;51.526;11.536;2022-12-18T06:11:21;-12.18;83.16
51878;SHT31;37911;51.526;11.536;2022-12-18T06:14:25;-12.11;83.05
51878;SHT31;37911;51.526;11.536;2022-12-18T06:17:29;-12.01;82.39
51878;SHT31;37911;51.526;11.536;2022-12-18T06:20:35;-12.02;81.79
51878;SHT31;37911;51.526;11.536;2022-12-18T06:23:40;-12.05;81.73
51878;SHT31;37911;51.526;11.536;2022-12-18T06:26:44;-12.02;81.39
51878;SHT31;37911;51.526;11.536;2022-12-18T06:29:47;-12.02;81.59
51878;SHT31;37911;51.526;11.536;2022-12-18T06:32:50;-12.08;81.54
51878;SHT31;37911;51.526;11.536;2022-12-18T06:35:59;-12.11;82.14
51878;SHT31;37911;51.526;11.536;2022-12-18T06:39:03;-12.10;82.72
51878;SHT31;37911;51.526;11.536;2022-12-18T06:42:06;-12.05;82.47
51878;SHT31;37911;51.526;11.536;2022-12-18T06:45:10;-12.08;81.97
51878;SHT31;37911;51.526;11.536;2022-12-18T06:48:14;-12.11;82.24
51878;SHT31;37911;51.526;11.536;2022-12-18T06:51:23;-12.07;81.55
51878;SHT31;37911;51.526;11.536;2022-12-18T06:54:27;-12.11;80.78
51878;SHT31;37911;51.526;11.536;2022-12-18T06:57:30;-12.11;80.46
51878;SHT31;37911;51.526;11.536;2022-12-18T07:00:34;-12.21;79.95
51878;SHT31;37911;51.526;11.536;2022-12-18T07:03:38;-12.26;79.78
51878;SHT31;37911;51.526;11.536;2022-12-18T07:06:44;-12.29;79.43
51878;SHT31;37911;51.526;11.536;2022-12-18T07:09:49;-12.38;79.62
51878;SHT31;37911;51.526;11.536;2022-12-18T07:12:52;-12.36;79.66
51878;SHT31;37911;51.526;11.536;2022-12-18T07:16:03;-12.32;79.67
51878;SHT31;37911;51.526;11.536;2022-12-18T07:19:07;-12.34;79.77
51878;SHT31;37911;51.526;11.536;2022-12-18T07:22:13;-12.36;80.10
51878;SHT31;37911;51.526;11.536;2022-12-18T07:25:16;-12.35;80.02
51878;SHT31;37911;51.526;11.536;2022-12-18T07:28:19;-12.29;79.85
51878;SHT31;37911;51.526;11.536;2022-12-18T07:31:25;-12.25;80.32
51878;SHT31;37911;51.526;11.536;2022-12-18T07:34:28;-12.26;80.58
51878;SHT31;37911;51.526;11.536;2022-12-18T07:37:34;-12.26;81.60
51878;SHT31;37911;51.526;11.536;2022-12-18T07:40:38;-12.21;81.45
51878;SHT31;37911;51.526;11.536;2022-12-18T07:43:42;-12.29;81.31
51878;SHT31;37911;51.526;11.536;2022-12-18T07:46:45;-12.35;81.41
51878;SHT31;37911;51.526;11.536;2022-12-18T07:49:48;-12.29;81.71
51878;SHT31;37911;51.526;11.536;2022-12-18T07:52:54;-12.25;81.73
51878;SHT31;37911;51.526;11.536;2022-12-18T07:55:59;-12.22;81.40
51878;SHT31;37911;51.526;11.536;2022-12-18T07:59:03;-12.13;80.77
51878;SHT31;37911;51.526;11.536;2022-12-18T08:02:06;-12.01;80.40
51878;SHT31;37911;51.526;11.536;2022-12-18T08:05:10;-11.93;79.96
51878;SHT31;37911;51.526;11.536;2022-12-18T08:08:16;-11.77;80.00
51878;SHT31;37911;51.526;11.536;2022-12-18T08:11:20;-11.83;79.96
51878;SHT31;37911;51.526;11.536;2022-12-18T08:14:23;-11.80;79.82
51878;SHT31;37911;51.526;11.536;2022-12-18T08:17:27;-11.80;79.47
51878;SHT31;37911;51.526;11.536;2022-12-18T08:20:31;-11.83;79.68
51878;SHT31;37911;51.526;11.536;2022-12-18T08:23:37;-11.80;79.80
51878;SHT31;37911;51.526;11.536;2022-12-18T08:26:40;-11.71;80.25
51878;SHT31;37911;51.526;11.536;2022-12-18T08:29:44;-11.69;80.69
51878;SHT31;37911;51.526;11.536;2022-12-18T08:32:51;-11.61;80.97
51878;SHT31;37911;51.526;11.536;2022-12-18T08:35:54;-11.57;81.18
51878;SHT31;37911;51.526;11.536;2022-12-18T08:39:00;-11.53;81.70
51878;SHT31;37911;51.526;11.536;2022-12-18T08:42:04;-11.54;81.64
51878;SHT31;37911;51.526;11.536;2022-12-18T08:45:20;-11.39;82.01
51878;SHT31;37911;51.526;11.536;2022-12-18T08:48:25;-11.32;81.45
51878;SHT31;37911;51.526;11.536;2022-12-18T08:51:28;-11.25;81.80
51878;SHT31;37911;51.526;11.536;2022-12-18T08:54:34;-11.19;82.46
51878;SHT31;37911;51.526;11.536;2022-12-18T08:57:38;-11.06;81.98
51878;SHT31;37911;51.526;11.536;2022-12-18T09:00:41;-11.11;81.66
51878;SHT31;37911;51.526;11.536;2022-12-18T09:03:44;-11.02;81.64
51878;SHT31;37911;51.526;11.536;2022-12-18T09:06:48;-10.95;82.13
51878;SHT31;37911;51.526;11.536;2022-12-18T09:09:54;-10.85;82.57
51878;SHT31;37911;51.526;11.536;2022-12-18T09:12:57;-10.69;82.51
51878;SHT31;37911;51.526;11.536;2022-12-18T09:16:03;-10.64;82.47
51878;SHT31;37911;51.526;11.536;2022-12-18T09:19:06;-10.55;82.18
51878;SHT31;37911;51.526;11.536;2022-12-18T09:22:10;-10.45;82.27
51878;SHT31;37911;51.526;11.536;2022-12-18T09:25:16;-10.41;82.45
51878;SHT31;37911;51.526;11.536;2022-12-18T09:28:19;-10.50;82.44
51878;SHT31;37911;51.526;11.536;2022-12-18T09:31:24;-10.41;82.63
51878;SHT31;37911;51.526;11.536;2022-12-18T09:34:27;-10.36;82.63
51878;SHT31;37911;51.526;11.536;2022-12-18T09:37:31;-10.29;82.36
51878;SHT31;37911;51.526;11.536;2022-12-18T09:40:41;-10.29;82.85
51878;SHT31;37911;51.526;11.536;2022-12-18T09:43:48;-10.16;83.10
51878;SHT31;37911;51.526;11.536;2022-12-18T09:46:59;-10.13;82.95
51878;SHT31;37911;51.526;11.536;2022-12-18T09:50:20;-10.02;82.95
51878;SHT31;37911;51.526;11.536;2022-12-18T09:53:31;-9.95;82.84
51878;SHT31;37911;51.526;11.536;2022-12-18T09:56:41;-9.90;82.87
51878;SHT31;37911;51.526;11.536;2022-12-18T09:59:48;-9.73;82.80
51878;SHT31;37911;51.526;11.536;2022-12-18T10:02:58;-9.63;82.38
51878;SHT31;37911;51.526;11.536;2022-12-18T10:06:08;-9.49;81.93
51878;SHT31;37911;51.526;11.536;2022-12-18T10:09:20;-9.48;81.86
51878;SHT31;37911;51.526;11.536;2022-12-18T10:12:32;-9.41;81.62
51878;SHT31;37911;51.526;11.536;2022-12-18T10:15:48;-9.17;81.32
51878;SHT31;37911;51.526;11.536;2022-12-18T10:19:07;-9.04;81.06
51878;SHT31;37911;51.526;11.536;2022-12-18T10:22:21;-8.94;80.83
51878;SHT31;37911;51.526;11.536;2022-12-18T10:25:28;-8.69;80.73
51878;SHT31;37911;51.526;11.536;2022-12-18T10:28:39;-8.56;80.12
51878;SHT31;37911;51.526;11.536;2022-12-18T10:31:46;-8.38;79.64
51878;SHT31;37911;51.526;11.536;2022-12-18T10:34:52;-8.33;79.28
51878;SHT31;37911;51.526;11.536;2022-12-18T10:38:02;-8.24;79.25
51878;SHT31;37911;51.526;11.536;2022-12-18T10:41:22;-8.17;79.59
51878;SHT31;37911;51.526;11.536;2022-12-18T10:44:29;-7.99;79.53
51878;SHT31;37911;51.526;11.536;2022-12-18T10:47:33;-7.88;79.17
51878;SHT31;37911;51.526;11.536;2022-12-18T10:50:37;-7.85;78.57
51878;SHT31;37911;51.526;11.536;2022-12-18T10:53:42;-7.87;78.57
51878;SHT31;37911;51.526;11.536;2022-12-18T10:56:45;-7.77;78.38
51878;SHT31;37911;51.526;11.536;2022-12-18T10:59:56;-7.90;77.94
51878;SHT31;37911;51.526;11.536;2022-12-18T11:03:00;-7.93;78.39
51878;SHT31;37911;51.526;11.536;2022-12-18T11:06:06;-7.83;78.76
51878;SHT31;37911;51.526;11.536;2022-12-18T11:09:19;-7.88;78.64
51878;SHT31;37911;51.526;11.536;2022-12-18T11:12:23;-7.75;78.37
51878;SHT31;37911;51.526;11.536;2022-12-18T11:15:30;-7.54;78.73
51878;SHT31;37911;51.526;11.536;2022-12-18T11:18:34;-7.61;78.45
51878;SHT31;37911;51.526;11.536;2022-12-18T11:21:39;-7.54;78.40
51878;SHT31;37911;51.526;11.536;2022-12-18T11:24:52;-7.67;78.34
51878;SHT31;37911;51.526;11.536;2022-12-18T11:27:58;-7.67;78.40
51878;SHT31;37911;51.526;11.536;2022-12-18T11:31:20;-7.74;78.46
51878;SHT31;37911;51.526;11.536;2022-12-18T11:34:27;-7.75;79.02
51878;SHT31;37911;51.526;11.536;2022-12-18T11:37:32;-7.70;78.59
51878;SHT31;37911;51.526;11.536;2022-12-18T11:40:38;-7.63;79.01
51878;SHT31;37911;51.526;11.536;2022-12-18T11:43:47;-7.63;78.94
51878;SHT31;37911;51.526;11.536;2022-12-18T11:47:00;-7.55;79.06
51878;SHT31;37911;51.526;11.536;2022-12-18T11:50:12;-7.40;78.80
51878;SHT31;37911;51.526;11.536;2022-12-18T11:53:17;-7.18;78.60
51878;SHT31;37911;51.526;11.536;2022-12-18T11:56:30;-7.19;78.66
51878;SHT31;37911;51.526;11.536;2022-12-18T11:59:40;-7.08;78.53
51878;SHT31;37911;51.526;11.536;2022-12-18T12:06:34;-6.92;78.95
51878;SHT31;37911;51.526;11.536;2022-12-18T12:09:48;-7.01;78.66
51878;SHT31;37911;51.526;11.536;2022-12-18T12:13:07;-6.88;79.05
51878;SHT31;37911;51.526;11.536;2022-12-18T12:16:20;-6.89;79.24
51878;SHT31;37911;51.526;11.536;2022-12-18T12:19:39;-6.96;79.14
51878;SHT31;37911;51.526;11.536;2022-12-18T12:22:49;-6.99;79.55
51878;SHT31;37911;51.526;11.536;2022-12-18T12:26:01;-6.96;79.79
51878;SHT31;37911;51.526;11.536;2022-12-18T12:29:15;-6.99;79.93
51878;SHT31;37911;51.526;11.536;2022-12-18T12:32:35;-6.78;79.78
51878;SHT31;37911;51.526;11.536;2022-12-18T12:35:50;-6.57;79.53
51878;SHT31;37911;51.526;11.536;2022-12-18T12:38:57;-6.45;79.11
51878;SHT31;37911;51.526;11.536;2022-12-18T12:42:04;-6.27;79.00
51878;SHT31;37911;51.526;11.536;2022-12-18T12:45:26;-6.37;78.67
51878;SHT31;37911;51.526;11.536;2022-12-18T12:48:35;-6.30;78.75
51878;SHT31;37911;51.526;11.536;2022-12-18T12:51:45;-6.30;79.28
51878;SHT31;37911;51.526;11.536;2022-12-18T12:54:51;-6.40;79.25
51878;SHT31;37911;51.526;11.536;2022-12-18T12:58:01;-6.47;79.82
51878;SHT31;37911;51.526;11.536;2022-12-18T13:01:12;-6.37;79.72
51878;SHT31;37911;51.526;11.536;2022-12-18T13:04:21;-6.42;79.83
51878;SHT31;37911;51.526;11.536;2022-12-18T13:07:52;-6.42;80.04
51878;SHT31;37911;51.526;11.536;2022-12-18T13:10:58;-6.44;80.09
51878;SHT31;37911;51.526;11.536;2022-12-18T13:14:21;-6.61;80.40
51878;SHT31;37911;51.526;11.536;2022-12-18T13:17:27;-6.60;80.64
51878;SHT31;37911;51.526;11.536;2022-12-18T13:20:36;-6.61;80.85
51878;SHT31;37911;51.526;11.536;2022-12-18T13:23:43;-6.74;81.00
51878;SHT31;37911;51.526;11.536;2022-12-18T13:26:46;-6.69;81.44
51878;SHT31;37911;51.526;11.536;2022-12-18T13:29:49;-6.71;81.49
51878;SHT31;37911;51.526;11.536;2022-12-18T13:36:34;-6.74;81.68
51878;SHT31;37911;51.526;11.536;2022-12-18T13:39:40;-6.74;81.95
51878;SHT31;37911;51.526;11.536;2022-12-18T13:42:44;-6.79;82.30
51878;SHT31;37911;51.526;11.536;2022-12-18T13:46:04;-6.82;82.71
51878;SHT31;37911;51.526;11.536;2022-12-18T13:49:23;-6.78;82.81
51878;SHT31;37911;51.526;11.536;2022-12-18T13:52:28;-6.71;83.09
51878;SHT31;37911;51.526;11.536;2022-12-18T13:55:45;-6.69;83.16
51878;SHT31;37911;51.526;11.536;2022-12-18T13:59:08;-6.72;83.21
51878;SHT31;37911;51.526;11.536;2022-12-18T14:02:15;-6.72;83.37
51878;SHT31;37911;51.526;11.536;2022-12-18T14:05:22;-6.67;83.15
51878;SHT31;37911;51.526;11.536;2022-12-18T14:08:28;-6.68;83.19
51878;SHT31;37911;51.526;11.536;2022-12-18T14:11:37;-6.64;83.21
51878;SHT31;37911;51.526;11.536;2022-12-18T14:14:42;-6.65;83.26
51878;SHT31;37911;51.526;11.536;2022-12-18T14:17:47;-6.68;83.38
51878;SHT31;37911;51.526;11.536;2022-12-18T14:20:54;-6.72;83.49
51878;SHT31;37911;51.526;11.536;2022-12-18T14:24:06;-6.78;83.28
51878;SHT31;37911;51.526;11.536;2022-12-18T14:27:24;-6.84;83.11
51878;SHT31;37911;51.526;11.536;2022-12-18T14:30:30;-6.92;83.71
51878;SHT31;37911;51.526;11.536;2022-12-18T14:33:33;-6.87;83.63
51878;SHT31;37911;51.526;11.536;2022-12-18T14:36:37;-6.85;83.69
51878;SHT31;37911;51.526;11.536;2022-12-18T14:39:52;-6.84;83.78
51878;SHT31;37911;51.526;11.536;2022-12-18T14:42:58;-6.87;83.86
51878;SHT31;37911;51.526;11.536;2022-12-18T14:46:02;-6.88;84.02
51878;SHT31;37911;51.526;11.536;2022-12-18T14:49:18;-6.85;84.14
51878;SHT31;37911;51.526;11.536;2022-12-18T14:52:27;-6.81;84.52
51878;SHT31;37911;51.526;11.536;2022-12-18T14:55:32;-6.81;84.83
51878;SHT31;37911;51.526;11.536;2022-12-18T14:58:38;-6.77;85.22
51878;SHT31;37911;51.526;11.536;2022-12-18T15:01:46;-6.68;85.31
51878;SHT31;37911;51.526;11.536;2022-12-18T15:05:00;-6.72;85.44
51878;SHT31;37911;51.526;11.536;2022-12-18T15:08:34;-6.72;85.19
51878;SHT31;37911;51.526;11.536;2022-12-18T15:11:46;-6.77;84.77
51878;SHT31;37911;51.526;11.536;2022-12-18T15:14:53;-6.82;84.44
51878;SHT31;37911;51.526;11.536;2022-12-18T15:17:57;-6.89;84.48
51878;SHT31;37911;51.526;11.536;2022-12-18T15:21:09;-6.93;84.57
51878;SHT31;37911;51.526;11.536;2022-12-18T15:24:17;-6.98;84.68
51878;SHT31;37911;51.526;11.536;2022-12-18T15:27:27;-7.02;84.89
51878;SHT31;37911;51.526;11.536;2022-12-18T15:30:33;-6.99;84.64
51878;SHT31;37911;51.526;11.536;2022-12-18T15:33:38;-6.96;84.70
51878;SHT31;37911;51.526;11.536;2022-12-18T15:36:42;-6.98;84.70
51878;SHT31;37911;51.526;11.536;2022-12-18T15:39:45;-6.96;84.73
51878;SHT31;37911;51.526;11.536;2022-12-18T15:42:52;-7.03;84.83
51878;SHT31;37911;51.526;11.536;2022-12-18T15:46:13;-7.03;84.94
51878;SHT31;37911;51.526;11.536;2022-12-18T15:49:17;-7.05;84.95
51878;SHT31;37911;51.526;11.536;2022-12-18T15:52:20;-6.99;85.05
51878;SHT31;37911;51.526;11.536;2022-12-18T15:55:26;-6.99;85.03
51878;SHT31;37911;51.526;11.536;2022-12-18T15:58:44;-7.08;85.04
51878;SHT31;37911;51.526;11.536;2022-12-18T16:01:51;-7.13;85.14
51878;SHT31;37911;51.526;11.536;2022-12-18T16:04:56;-7.12;85.29
51878;SHT31;37911;51.526;11.536;2022-12-18T16:07:59;-7.10;85.15
51878;SHT31;37911;51.526;11.536;2022-12-18T16:11:03;-7.09;85.29
51878;SHT31;37911;51.526;11.536;2022-12-18T16:14:19;-7.13;85.36
51878;SHT31;37911;51.526;11.536;2022-12-18T16:17:25;-7.12;85.41
51878;SHT31;37911;51.526;11.536;2022-12-18T16:20:28;-7.12;85.39
51878;SHT31;37911;51.526;11.536;2022-12-18T16:23:34;-7.12;85.55
51878;SHT31;37911;51.526;11.536;2022-12-18T16:26:37;-7.15;85.69
51878;SHT31;37911;51.526;11.536;2022-12-18T16:29:42;-7.12;85.65
51878;SHT31;37911;51.526;11.536;2022-12-18T16:32:48;-7.16;85.65
51878;SHT31;37911;51.526;11.536;2022-12-18T16:35:52;-7.23;85.77
51878;SHT31;37911;51.526;11.536;2022-12-18T16:38:56;-7.19;85.72
51878;SHT31;37911;51.526;11.536;2022-12-18T16:42:00;-7.15;85.88
51878;SHT31;37911;51.526;11.536;2022-12-18T16:45:04;-7.12;86.02
51878;SHT31;37911;51.526;11.536;2022-12-18T16:48:12;-7.01;86.30
51878;SHT31;37911;51.526;11.536;2022-12-18T16:51:16;-6.87;86.53
51878;SHT31;37911;51.526;11.536;2022-12-18T16:54:20;-6.77;86.85
51878;SHT31;37911;51.526;11.536;2022-12-18T16:57:24;-6.67;86.63
51878;SHT31;37911;51.526;11.536;2022-12-18T17:00:27;-6.60;86.62
51878;SHT31;37911;51.526;11.536;2022-12-18T17:03:33;-6.47;86.55
51878;SHT31;37911;51.526;11.536;2022-12-18T17:06:40;-6.36;86.60
51878;SHT31;37911;51.526;11.536;2022-12-18T17:09:44;-6.34;86.87
51878;SHT31;37911;51.526;11.536;2022-12-18T17:12:50;-6.34;87.30
51878;SHT31;37911;51.526;11.536;2022-12-18T17:15:53;-6.30;87.56
51878;SHT31;37911;51.526;11.536;2022-12-18T17:19:00;-6.27;87.80
51878;SHT31;37911;51.526;11.536;2022-12-18T17:22:04;-6.30;87.99
51878;SHT31;37911;51.526;11.536;2022-12-18T17:25:08;-6.24;87.87
51878;SHT31;37911;51.526;11.536;2022-12-18T17:28:11;-6.26;87.71
51878;SHT31;37911;51.526;11.536;2022-12-18T17:31:17;-6.26;87.63
51878;SHT31;37911;51.526;11.536;2022-12-18T17:34:23;-6.23;87.63
51878;SHT31;37911;51.526;11.536;2022-12-18T17:37:27;-6.23;87.58
51878;SHT31;37911;51.526;11.536;2022-12-18T17:40:32;-6.20;87.45
51878;SHT31;37911;51.526;11.536;2022-12-18T17:43:35;-6.21;87.47
51878;SHT31;37911;51.526;11.536;2022-12-18T17:46:45;-6.18;87.31
51878;SHT31;37911;51.526;11.536;2022-12-18T17:49:51;-6.21;87.15
51878;SHT31;37911;51.526;11.536;2022-12-18T17:52:54;-6.21;86.96
51878;SHT31;37911;51.526;11.536;2022-12-18T17:55:59;-6.21;86.78
51878;SHT31;37911;51.526;11.536;2022-12-18T17:59:05;-6.21;86.83
51878;SHT31;37911;51.526;11.536;2022-12-18T18:02:10;-6.23;86.90
51878;SHT31;37911;51.526;11.536;2022-12-18T18:05:16;-6.23;86.96
51878;SHT31;37911;51.526;11.536;2022-12-18T18:08:21;-6.20;87.00
51878;SHT31;37911;51.526;11.536;2022-12-18T18:11:24;-6.18;87.04
51878;SHT31;37911;51.526;11.536;2022-12-18T18:14:40;-6.18;86.97
51878;SHT31;37911;51.526;11.536;2022-12-18T18:17:43;-6.18;86.98
51878;SHT31;37911;51.526;11.536;2022-12-18T18:20:50;-6.21;86.98
51878;SHT31;37911;51.526;11.536;2022-12-18T18:23:54;-6.23;86.94
51878;SHT31;37911;51.526;11.536;2022-12-18T18:26:57;-6.20;87.02
51878;SHT31;37911;51.526;11.536;2022-12-18T18:30:02;-6.18;87.09
51878;SHT31;37911;51.526;11.536;2022-12-18T18:33:05;-6.11;87.08
51878;SHT31;37911;51.526;11.536;2022-12-18T18:36:12;-6.13;87.05
51878;SHT31;37911;51.526;11.536;2022-12-18T18:39:16;-6.14;87.20
51878;SHT31;37911;51.526;11.536;2022-12-18T18:42:20;-6.13;87.37
51878;SHT31;37911;51.526;11.536;2022-12-18T18:45:23;-6.09;87.38
51878;SHT31;37911;51.526;11.536;2022-12-18T18:48:30;-6.04;87.50
51878;SHT31;37911;51.526;11.536;2022-12-18T18:51:38;-6.02;87.44
51878;SHT31;37911;51.526;11.536;2022-12-18T18:54:41;-6.03;87.40
51878;SHT31;37911;51.526;11.536;2022-12-18T18:57:44;-6.00;87.46
51878;SHT31;37911;51.526;11.536;2022-12-18T19:00:53;-5.97;87.46
51878;SHT31;37911;51.526;11.536;2022-12-18T19:03:57;-5.97;87.48
51878;SHT31;37911;51.526;11.536;2022-12-18T19:07:03;-5.92;87.44
51878;SHT31;37911;51.526;11.536;2022-12-18T19:10:07;-5.89;87.43
51878;SHT31;37911;51.526;11.536;2022-12-18T19:13:11;-5.78;87.53
51878;SHT31;37911;51.526;11.536;2022-12-18T19:16:22;-5.71;87.40
51878;SHT31;37911;51.526;11.536;2022-12-18T19:19:25;-5.63;87.24
51878;SHT31;37911;51.526;11.536;2022-12-18T19:22:31;-5.59;87.14